sensor_id;sensor_type;location;lat;lon;timestamp;P1;durP1;ratioP1;P2;durP2;ratioP2
17858;SDS011;35426;30.698;104.050;2023-09-19T00:02:31;63.90;;;37.10;;
17858;SDS011;35426;30.698;104.050;2023-09-19T00:05:06;56.47;;;36.90;;
17858;SDS011;35426;30.698;104.050;2023-09-19T00:07:42;56.60;;;34.60;;
17858;SDS011;35426;30.698;104.050;2023-09-19T00:10:17;60.17;;;37.00;;
17858;SDS011;35426;30.698;104.050;2023-09-19T00:12:53;61.00;;;36.57;;
17858;SDS011;35426;30.698;104.050;2023-09-19T00:15:29;63.70;;;35.40;;
17858;SDS011;35426;30.698;104.050;2023-09-19T00:18:07;56.50;;;34.37;;
17858;SDS011;35426;30.698;104.050;2023-09-19T00:20:45;58.47;;;32.80;;
17858;SDS011;35426;30.698;104.050;2023-09-19T00:23:21;59.53;;;36.13;;
17858;SDS011;35426;30.698;104.050;2023-09-19T00:25:58;53.33;;;32.83;;
17858;SDS011;35426;30.698;104.050;2023-09-19T00:28:35;56.70;;;34.30;;
17858;SDS011;35426;30.698;104.050;2023-09-19T00:31:09;55.17;;;32.43;;
17858;SDS011;35426;30.698;104.050;2023-09-19T00:33:44;52.73;;;30.80;;
17858;SDS011;35426;30.698;104.050;2023-09-19T00:36:18;55.70;;;32.67;;
17858;SDS011;35426;30.698;104.050;2023-09-19T00:38:52;47.93;;;30.13;;
17858;SDS011;35426;30.698;104.050;2023-09-19T00:41:27;51.00;;;29.00;;
17858;SDS011;35426;30.698;104.050;2023-09-19T00:44:03;54.70;;;31.33;;
17858;SDS011;35426;30.698;104.050;2023-09-19T00:46:40;52.33;;;29.70;;
17858;SDS011;35426;30.698;104.050;2023-09-19T00:49:17;40.27;;;23.50;;
17858;SDS011;35426;30.698;104.050;2023-09-19T00:51:52;39.20;;;22.47;;
17858;SDS011;35426;30.698;104.050;2023-09-19T00:54:27;34.40;;;20.60;;
17858;SDS011;35426;30.698;104.050;2023-09-19T00:57:03;35.63;;;20.97;;
17858;SDS011;35426;30.698;104.050;2023-09-19T00:59:40;36.97;;;21.33;;
17858;SDS011;35426;30.698;104.050;2023-09-19T01:02:14;39.17;;;22.90;;
17858;SDS011;35426;30.698;104.050;2023-09-19T01:04:49;36.43;;;19.07;;
17858;SDS011;35426;30.698;104.050;2023-09-19T01:07:24;34.57;;;18.77;;
17858;SDS011;35426;30.698;104.050;2023-09-19T01:09:59;32.83;;;20.33;;
17858;SDS011;35426;30.698;104.050;2023-09-19T01:12:37;36.33;;;20.87;;
17858;SDS011;35426;30.698;104.050;2023-09-19T01:15:25;37.77;;;20.40;;
17858;SDS011;35426;30.698;104.050;2023-09-19T01:18:13;37.77;;;19.77;;
17858;SDS011;35426;30.698;104.050;2023-09-19T01:20:55;35.13;;;20.90;;
17858;SDS011;35426;30.698;104.050;2023-09-19T01:23:39;37.93;;;20.47;;
17858;SDS011;35426;30.698;104.050;2023-09-19T01:26:42;36.27;;;19.90;;
17858;SDS011;35426;30.698;104.050;2023-09-19T01:29:39;34.73;;;19.83;;
17858;SDS011;35426;30.698;104.050;2023-09-19T01:32:19;35.10;;;19.37;;
17858;SDS011;35426;30.698;104.050;2023-09-19T01:34:54;34.00;;;18.97;;
17858;SDS011;35426;30.698;104.050;2023-09-19T01:37:33;37.37;;;19.20;;
17858;SDS011;35426;30.698;104.050;2023-09-19T01:40:08;37.67;;;20.97;;
17858;SDS011;35426;30.698;104.050;2023-09-19T01:42:48;33.63;;;19.83;;
17858;SDS011;35426;30.698;104.050;2023-09-19T01:45:30;36.17;;;20.20;;
17858;SDS011;35426;30.698;104.050;2023-09-19T01:48:15;33.67;;;19.83;;
17858;SDS011;35426;30.698;104.050;2023-09-19T01:50:59;34.70;;;19.97;;
17858;SDS011;35426;30.698;104.050;2023-09-19T01:53:36;42.03;;;20.60;;
17858;SDS011;35426;30.698;104.050;2023-09-19T01:56:19;36.07;;;19.67;;
17858;SDS011;35426;30.698;104.050;2023-09-19T01:58:58;32.23;;;19.93;;
17858;SDS011;35426;30.698;104.050;2023-09-19T02:01:37;36.27;;;19.63;;
17858;SDS011;35426;30.698;104.050;2023-09-19T02:04:16;29.63;;;18.90;;
17858;SDS011;35426;30.698;104.050;2023-09-19T02:06:52;34.90;;;18.10;;
17858;SDS011;35426;30.698;104.050;2023-09-19T02:09:26;37.37;;;18.73;;
17858;SDS011;35426;30.698;104.050;2023-09-19T02:12:03;24.57;;;15.63;;
17858;SDS011;35426;30.698;104.050;2023-09-19T02:14:38;31.00;;;16.63;;
17858;SDS011;35426;30.698;104.050;2023-09-19T02:17:11;34.40;;;17.70;;
17858;SDS011;35426;30.698;104.050;2023-09-19T02:19:49;34.03;;;18.20;;
17858;SDS011;35426;30.698;104.050;2023-09-19T02:22:24;27.70;;;15.83;;
17858;SDS011;35426;30.698;104.050;2023-09-19T02:24:58;30.80;;;15.77;;
17858;SDS011;35426;30.698;104.050;2023-09-19T02:27:34;24.77;;;15.47;;
17858;SDS011;35426;30.698;104.050;2023-09-19T02:30:09;26.60;;;14.53;;
17858;SDS011;35426;30.698;104.050;2023-09-19T02:32:45;25.97;;;14.83;;
17858;SDS011;35426;30.698;104.050;2023-09-19T02:35:22;21.77;;;12.93;;
17858;SDS011;35426;30.698;104.050;2023-09-19T02:37:57;23.57;;;12.47;;
17858;SDS011;35426;30.698;104.050;2023-09-19T02:40:35;21.53;;;11.97;;
17858;SDS011;35426;30.698;104.050;2023-09-19T02:43:10;17.55;;;11.43;;
17858;SDS011;35426;30.698;104.050;2023-09-19T02:45:44;17.60;;;10.83;;
17858;SDS011;35426;30.698;104.050;2023-09-19T02:48:19;15.18;;;9.40;;
17858;SDS011;35426;30.698;104.050;2023-09-19T02:50:57;16.95;;;9.85;;
17858;SDS011;35426;30.698;104.050;2023-09-19T02:53:32;17.25;;;10.52;;
17858;SDS011;35426;30.698;104.050;2023-09-19T02:56:06;21.10;;;9.50;;
17858;SDS011;35426;30.698;104.050;2023-09-19T02:58:43;16.43;;;9.30;;
17858;SDS011;35426;30.698;104.050;2023-09-19T03:01:18;24.65;;;9.95;;
17858;SDS011;35426;30.698;104.050;2023-09-19T03:03:54;15.17;;;10.00;;
17858;SDS011;35426;30.698;104.050;2023-09-19T03:06:30;17.50;;;8.60;;
17858;SDS011;35426;30.698;104.050;2023-09-19T03:09:05;12.02;;;7.85;;
17858;SDS011;35426;30.698;104.050;2023-09-19T03:11:40;25.47;;;8.27;;
17858;SDS011;35426;30.698;104.050;2023-09-19T03:14:15;14.70;;;7.77;;
17858;SDS011;35426;30.698;104.050;2023-09-19T03:16:50;13.65;;;8.13;;
17858;SDS011;35426;30.698;104.050;2023-09-19T03:19:24;19.70;;;9.70;;
17858;SDS011;35426;30.698;104.050;2023-09-19T03:22:01;12.73;;;8.25;;
17858;SDS011;35426;30.698;104.050;2023-09-19T03:24:38;12.35;;;8.18;;
17858;SDS011;35426;30.698;104.050;2023-09-19T03:27:13;19.05;;;8.82;;
17858;SDS011;35426;30.698;104.050;2023-09-19T03:29:48;13.80;;;8.32;;
17858;SDS011;35426;30.698;104.050;2023-09-19T03:32:23;14.18;;;7.70;;
17858;SDS011;35426;30.698;104.050;2023-09-19T03:34:57;19.77;;;9.40;;
17858;SDS011;35426;30.698;104.050;2023-09-19T03:37:33;18.40;;;9.13;;
17858;SDS011;35426;30.698;104.050;2023-09-19T03:40:08;16.02;;;8.23;;
17858;SDS011;35426;30.698;104.050;2023-09-19T03:42:44;20.77;;;9.25;;
17858;SDS011;35426;30.698;104.050;2023-09-19T03:45:18;15.40;;;8.25;;
17858;SDS011;35426;30.698;104.050;2023-09-19T03:47:52;15.45;;;7.85;;
17858;SDS011;35426;30.698;104.050;2023-09-19T03:50:27;14.30;;;7.70;;
17858;SDS011;35426;30.698;104.050;2023-09-19T03:53:05;13.15;;;7.68;;
17858;SDS011;35426;30.698;104.050;2023-09-19T03:55:44;14.13;;;7.68;;
17858;SDS011;35426;30.698;104.050;2023-09-19T03:58:18;11.10;;;7.00;;
17858;SDS011;35426;30.698;104.050;2023-09-19T04:00:55;12.35;;;7.30;;
17858;SDS011;35426;30.698;104.050;2023-09-19T04:03:30;10.90;;;6.78;;
17858;SDS011;35426;30.698;104.050;2023-09-19T04:06:16;17.27;;;7.25;;
17858;SDS011;35426;30.698;104.050;2023-09-19T04:08:52;13.82;;;7.38;;
17858;SDS011;35426;30.698;104.050;2023-09-19T04:11:27;11.70;;;7.60;;
17858;SDS011;35426;30.698;104.050;2023-09-19T04:14:03;12.50;;;7.63;;
17858;SDS011;35426;30.698;104.050;2023-09-19T04:16:37;14.57;;;8.30;;
17858;SDS011;35426;30.698;104.050;2023-09-19T04:19:12;12.52;;;7.70;;
17858;SDS011;35426;30.698;104.050;2023-09-19T04:21:47;12.98;;;8.20;;
17858;SDS011;35426;30.698;104.050;2023-09-19T04:24:23;15.60;;;8.15;;
17858;SDS011;35426;30.698;104.050;2023-09-19T04:26:57;15.82;;;8.10;;
17858;SDS011;35426;30.698;104.050;2023-09-19T04:29:31;14.02;;;8.30;;
17858;SDS011;35426;30.698;104.050;2023-09-19T04:32:07;13.30;;;7.70;;
17858;SDS011;35426;30.698;104.050;2023-09-19T04:34:43;18.67;;;8.10;;
17858;SDS011;35426;30.698;104.050;2023-09-19T04:37:19;15.15;;;8.27;;
17858;SDS011;35426;30.698;104.050;2023-09-19T04:39:55;14.23;;;8.23;;
17858;SDS011;35426;30.698;104.050;2023-09-19T04:42:30;14.93;;;8.00;;
17858;SDS011;35426;30.698;104.050;2023-09-19T04:45:04;12.43;;;7.13;;
17858;SDS011;35426;30.698;104.050;2023-09-19T04:47:39;13.40;;;7.43;;
17858;SDS011;35426;30.698;104.050;2023-09-19T04:50:14;16.08;;;9.40;;
17858;SDS011;35426;30.698;104.050;2023-09-19T04:52:49;16.67;;;8.50;;
17858;SDS011;35426;30.698;104.050;2023-09-19T04:55:26;16.20;;;9.70;;
17858;SDS011;35426;30.698;104.050;2023-09-19T04:58:02;19.63;;;9.50;;
17858;SDS011;35426;30.698;104.050;2023-09-19T05:00:36;16.65;;;10.18;;
17858;SDS011;35426;30.698;104.050;2023-09-19T05:03:10;14.05;;;8.95;;
17858;SDS011;35426;30.698;104.050;2023-09-19T05:05:44;17.50;;;9.32;;
17858;SDS011;35426;30.698;104.050;2023-09-19T05:08:18;18.60;;;9.48;;
17858;SDS011;35426;30.698;104.050;2023-09-19T05:10:55;19.75;;;10.90;;
17858;SDS011;35426;30.698;104.050;2023-09-19T05:13:30;17.95;;;10.40;;
17858;SDS011;35426;30.698;104.050;2023-09-19T05:16:05;18.60;;;10.50;;
17858;SDS011;35426;30.698;104.050;2023-09-19T05:18:39;15.32;;;9.77;;
17858;SDS011;35426;30.698;104.050;2023-09-19T05:21:13;17.13;;;9.60;;
17858;SDS011;35426;30.698;104.050;2023-09-19T05:23:47;18.77;;;9.80;;
17858;SDS011;35426;30.698;104.050;2023-09-19T05:26:25;18.50;;;11.63;;
17858;SDS011;35426;30.698;104.050;2023-09-19T05:28:58;20.88;;;10.45;;
17858;SDS011;35426;30.698;104.050;2023-09-19T05:31:34;19.10;;;13.15;;
17858;SDS011;35426;30.698;104.050;2023-09-19T05:34:10;17.58;;;11.63;;
17858;SDS011;35426;30.698;104.050;2023-09-19T05:36:44;23.30;;;11.77;;
17858;SDS011;35426;30.698;104.050;2023-09-19T05:39:18;22.02;;;12.82;;
17858;SDS011;35426;30.698;104.050;2023-09-19T05:41:56;17.20;;;10.20;;
17858;SDS011;35426;30.698;104.050;2023-09-19T05:44:30;17.73;;;9.95;;
17858;SDS011;35426;30.698;104.050;2023-09-19T05:47:04;20.45;;;9.95;;
17858;SDS011;35426;30.698;104.050;2023-09-19T05:49:39;15.88;;;9.98;;
17858;SDS011;35426;30.698;104.050;2023-09-19T05:52:13;19.55;;;10.32;;
17858;SDS011;35426;30.698;104.050;2023-09-19T05:54:48;15.77;;;10.20;;
17858;SDS011;35426;30.698;104.050;2023-09-19T05:57:24;19.20;;;10.07;;
17858;SDS011;35426;30.698;104.050;2023-09-19T05:59:58;17.38;;;10.13;;
17858;SDS011;35426;30.698;104.050;2023-09-19T06:02:41;21.42;;;11.02;;
17858;SDS011;35426;30.698;104.050;2023-09-19T06:05:18;20.05;;;10.48;;
17858;SDS011;35426;30.698;104.050;2023-09-19T06:07:53;15.65;;;9.30;;
17858;SDS011;35426;30.698;104.050;2023-09-19T06:10:29;18.00;;;8.50;;
17858;SDS011;35426;30.698;104.050;2023-09-19T06:13:06;15.65;;;7.90;;
17858;SDS011;35426;30.698;104.050;2023-09-19T06:15:40;13.27;;;7.93;;
17858;SDS011;35426;30.698;104.050;2023-09-19T06:18:16;14.73;;;7.80;;
17858;SDS011;35426;30.698;104.050;2023-09-19T06:20:50;14.68;;;8.07;;
17858;SDS011;35426;30.698;104.050;2023-09-19T06:23:24;20.15;;;8.07;;
17858;SDS011;35426;30.698;104.050;2023-09-19T06:25:59;15.77;;;8.30;;
17858;SDS011;35426;30.698;104.050;2023-09-19T06:28:38;16.33;;;8.98;;
17858;SDS011;35426;30.698;104.050;2023-09-19T06:31:12;16.92;;;7.88;;
17858;SDS011;35426;30.698;104.050;2023-09-19T06:33:47;17.17;;;8.23;;
17858;SDS011;35426;30.698;104.050;2023-09-19T06:36:22;16.15;;;7.55;;
17858;SDS011;35426;30.698;104.050;2023-09-19T06:38:55;13.95;;;7.20;;
17858;SDS011;35426;30.698;104.050;2023-09-19T06:41:29;11.57;;;6.18;;
17858;SDS011;35426;30.698;104.050;2023-09-19T06:44:12;11.82;;;4.82;;
17858;SDS011;35426;30.698;104.050;2023-09-19T06:46:46;7.55;;;4.53;;
17858;SDS011;35426;30.698;104.050;2023-09-19T06:49:21;8.70;;;4.78;;
17858;SDS011;35426;30.698;104.050;2023-09-19T06:51:55;7.57;;;4.32;;
17858;SDS011;35426;30.698;104.050;2023-09-19T06:54:31;7.93;;;4.20;;
17858;SDS011;35426;30.698;104.050;2023-09-19T06:57:06;7.72;;;4.70;;
17858;SDS011;35426;30.698;104.050;2023-09-19T06:59:42;6.43;;;4.13;;
17858;SDS011;35426;30.698;104.050;2023-09-19T07:02:16;6.18;;;4.22;;
17858;SDS011;35426;30.698;104.050;2023-09-19T07:04:52;6.00;;;4.10;;
17858;SDS011;35426;30.698;104.050;2023-09-19T07:07:28;7.93;;;4.07;;
17858;SDS011;35426;30.698;104.050;2023-09-19T07:10:05;8.25;;;4.45;;
17858;SDS011;35426;30.698;104.050;2023-09-19T07:12:40;6.40;;;4.32;;
17858;SDS011;35426;30.698;104.050;2023-09-19T07:15:17;8.55;;;3.75;;
17858;SDS011;35426;30.698;104.050;2023-09-19T07:17:52;7.35;;;3.83;;
17858;SDS011;35426;30.698;104.050;2023-09-19T07:20:27;11.60;;;4.50;;
17858;SDS011;35426;30.698;104.050;2023-09-19T07:23:02;5.93;;;4.03;;
17858;SDS011;35426;30.698;104.050;2023-09-19T07:25:36;8.68;;;4.30;;
17858;SDS011;35426;30.698;104.050;2023-09-19T07:28:10;5.88;;;3.92;;
17858;SDS011;35426;30.698;104.050;2023-09-19T07:30:49;5.43;;;3.75;;
17858;SDS011;35426;30.698;104.050;2023-09-19T07:33:24;8.25;;;3.78;;
17858;SDS011;35426;30.698;104.050;2023-09-19T07:35:59;6.60;;;4.10;;
17858;SDS011;35426;30.698;104.050;2023-09-19T07:38:33;10.82;;;4.57;;
17858;SDS011;35426;30.698;104.050;2023-09-19T07:41:08;7.85;;;4.22;;
17858;SDS011;35426;30.698;104.050;2023-09-19T07:43:42;10.27;;;4.15;;
17858;SDS011;35426;30.698;104.050;2023-09-19T07:46:18;9.30;;;4.30;;
17858;SDS011;35426;30.698;104.050;2023-09-19T07:48:54;13.63;;;4.07;;
17858;SDS011;35426;30.698;104.050;2023-09-19T07:51:28;7.03;;;3.53;;
17858;SDS011;35426;30.698;104.050;2023-09-19T07:54:03;5.95;;;3.55;;
17858;SDS011;35426;30.698;104.050;2023-09-19T07:56:37;5.50;;;3.70;;
17858;SDS011;35426;30.698;104.050;2023-09-19T07:59:11;5.13;;;3.47;;
17858;SDS011;35426;30.698;104.050;2023-09-19T08:01:49;4.55;;;3.28;;
17858;SDS011;35426;30.698;104.050;2023-09-19T08:04:23;8.48;;;4.20;;
17858;SDS011;35426;30.698;104.050;2023-09-19T08:07:00;6.45;;;3.88;;
17858;SDS011;35426;30.698;104.050;2023-09-19T08:09:35;5.70;;;3.38;;
17858;SDS011;35426;30.698;104.050;2023-09-19T08:12:09;7.90;;;4.60;;
17858;SDS011;35426;30.698;104.050;2023-09-19T08:14:45;8.52;;;4.78;;
17858;SDS011;35426;30.698;104.050;2023-09-19T08:17:21;9.55;;;4.60;;
17858;SDS011;35426;30.698;104.050;2023-09-19T08:19:55;8.98;;;4.60;;
17858;SDS011;35426;30.698;104.050;2023-09-19T08:22:29;10.02;;;4.35;;
17858;SDS011;35426;30.698;104.050;2023-09-19T08:25:04;9.77;;;4.30;;
17858;SDS011;35426;30.698;104.050;2023-09-19T08:27:42;6.97;;;3.85;;
17858;SDS011;35426;30.698;104.050;2023-09-19T08:30:18;8.25;;;3.60;;
17858;SDS011;35426;30.698;104.050;2023-09-19T08:32:58;9.05;;;4.07;;
17858;SDS011;35426;30.698;104.050;2023-09-19T08:35:34;8.32;;;3.90;;
17858;SDS011;35426;30.698;104.050;2023-09-19T08:38:09;6.75;;;4.15;;
17858;SDS011;35426;30.698;104.050;2023-09-19T08:40:43;6.68;;;4.30;;
17858;SDS011;35426;30.698;104.050;2023-09-19T08:43:18;9.05;;;4.25;;
17858;SDS011;35426;30.698;104.050;2023-09-19T08:45:57;6.15;;;4.22;;
17858;SDS011;35426;30.698;104.050;2023-09-19T08:48:45;7.68;;;4.05;;
17858;SDS011;35426;30.698;104.050;2023-09-19T08:51:26;9.18;;;4.78;;
17858;SDS011;35426;30.698;104.050;2023-09-19T08:54:06;7.32;;;4.63;;
17858;SDS011;35426;30.698;104.050;2023-09-19T08:56:42;7.40;;;4.50;;
17858;SDS011;35426;30.698;104.050;2023-09-19T08:59:17;9.90;;;4.25;;
17858;SDS011;35426;30.698;104.050;2023-09-19T09:01:58;13.27;;;5.20;;
17858;SDS011;35426;30.698;104.050;2023-09-19T09:04:35;8.48;;;4.82;;
17858;SDS011;35426;30.698;104.050;2023-09-19T09:07:11;10.73;;;4.90;;
17858;SDS011;35426;30.698;104.050;2023-09-19T09:09:46;13.70;;;4.80;;
17858;SDS011;35426;30.698;104.050;2023-09-19T09:12:21;10.68;;;4.68;;
17858;SDS011;35426;30.698;104.050;2023-09-19T09:14:56;7.82;;;4.65;;
17858;SDS011;35426;30.698;104.050;2023-09-19T09:17:30;9.25;;;4.53;;
17858;SDS011;35426;30.698;104.050;2023-09-19T09:20:07;7.40;;;4.82;;
17858;SDS011;35426;30.698;104.050;2023-09-19T09:22:48;10.32;;;5.00;;
17858;SDS011;35426;30.698;104.050;2023-09-19T09:25:25;7.10;;;4.82;;
17858;SDS011;35426;30.698;104.050;2023-09-19T09:28:24;11.38;;;4.88;;
17858;SDS011;35426;30.698;104.050;2023-09-19T09:31:00;11.32;;;5.63;;
17858;SDS011;35426;30.698;104.050;2023-09-19T09:33:38;8.65;;;4.97;;
17858;SDS011;35426;30.698;104.050;2023-09-19T09:36:16;6.72;;;4.57;;
17858;SDS011;35426;30.698;104.050;2023-09-19T09:39:08;10.00;;;5.28;;
17858;SDS011;35426;30.698;104.050;2023-09-19T09:41:54;11.90;;;4.88;;
17858;SDS011;35426;30.698;104.050;2023-09-19T09:44:29;10.40;;;5.13;;
17858;SDS011;35426;30.698;104.050;2023-09-19T09:47:03;11.00;;;4.80;;
17858;SDS011;35426;30.698;104.050;2023-09-19T09:50:06;9.50;;;5.22;;
17858;SDS011;35426;30.698;104.050;2023-09-19T09:52:49;9.95;;;4.57;;
17858;SDS011;35426;30.698;104.050;2023-09-19T09:55:30;12.57;;;4.72;;
17858;SDS011;35426;30.698;104.050;2023-09-19T09:58:32;8.85;;;5.40;;
17858;SDS011;35426;30.698;104.050;2023-09-19T10:01:09;10.02;;;4.63;;
17858;SDS011;35426;30.698;104.050;2023-09-19T10:03:45;13.57;;;4.65;;
17858;SDS011;35426;30.698;104.050;2023-09-19T10:06:22;8.18;;;4.68;;
17858;SDS011;35426;30.698;104.050;2023-09-19T10:09:03;12.55;;;6.68;;
17858;SDS011;35426;30.698;104.050;2023-09-19T10:11:46;15.57;;;6.63;;
17858;SDS011;35426;30.698;104.050;2023-09-19T10:14:33;13.23;;;6.20;;
17858;SDS011;35426;30.698;104.050;2023-09-19T10:17:11;13.68;;;6.53;;
17858;SDS011;35426;30.698;104.050;2023-09-19T10:19:52;17.35;;;6.82;;
17858;SDS011;35426;30.698;104.050;2023-09-19T10:22:36;11.68;;;5.93;;
17858;SDS011;35426;30.698;104.050;2023-09-19T10:25:14;15.85;;;6.07;;
17858;SDS011;35426;30.698;104.050;2023-09-19T10:27:50;14.60;;;6.85;;
17858;SDS011;35426;30.698;104.050;2023-09-19T10:30:27;17.58;;;7.43;;
17858;SDS011;35426;30.698;104.050;2023-09-19T10:33:04;11.77;;;5.90;;
17858;SDS011;35426;30.698;104.050;2023-09-19T10:35:39;13.90;;;6.28;;
17858;SDS011;35426;30.698;104.050;2023-09-19T10:38:17;13.18;;;6.63;;
17858;SDS011;35426;30.698;104.050;2023-09-19T10:40:56;13.95;;;6.05;;
17858;SDS011;35426;30.698;104.050;2023-09-19T10:43:32;13.75;;;5.88;;
17858;SDS011;35426;30.698;104.050;2023-09-19T10:46:08;15.82;;;5.30;;
17858;SDS011;35426;30.698;104.050;2023-09-19T10:48:42;13.63;;;5.40;;
17858;SDS011;35426;30.698;104.050;2023-09-19T10:51:20;15.32;;;6.43;;
17858;SDS011;35426;30.698;104.050;2023-09-19T10:54:01;14.18;;;6.28;;
17858;SDS011;35426;30.698;104.050;2023-09-19T10:56:46;12.25;;;5.70;;
17858;SDS011;35426;30.698;104.050;2023-09-19T10:59:21;11.88;;;5.65;;
17858;SDS011;35426;30.698;104.050;2023-09-19T11:01:55;14.82;;;5.07;;
17858;SDS011;35426;30.698;104.050;2023-09-19T11:04:31;10.50;;;5.05;;
17858;SDS011;35426;30.698;104.050;2023-09-19T11:07:06;10.90;;;5.57;;
17858;SDS011;35426;30.698;104.050;2023-09-19T11:09:47;15.15;;;5.85;;
17858;SDS011;35426;30.698;104.050;2023-09-19T11:24:28;14.52;;;6.15;;
17858;SDS011;35426;30.698;104.050;2023-09-19T11:27:12;9.57;;;4.55;;
17858;SDS011;35426;30.698;104.050;2023-09-19T11:29:52;11.43;;;4.78;;
17858;SDS011;35426;30.698;104.050;2023-09-19T11:33:18;14.15;;;5.45;;
17858;SDS011;35426;30.698;104.050;2023-09-19T11:36:01;10.85;;;4.80;;
17858;SDS011;35426;30.698;104.050;2023-09-19T11:38:58;11.20;;;4.88;;
17858;SDS011;35426;30.698;104.050;2023-09-19T11:41:44;12.25;;;6.00;;
17858;SDS011;35426;30.698;104.050;2023-09-19T11:44:32;12.45;;;5.78;;
17858;SDS011;35426;30.698;104.050;2023-09-19T11:47:09;12.35;;;4.82;;
17858;SDS011;35426;30.698;104.050;2023-09-19T11:49:45;11.00;;;5.63;;
17858;SDS011;35426;30.698;104.050;2023-09-19T11:52:21;14.48;;;6.20;;
17858;SDS011;35426;30.698;104.050;2023-09-19T11:54:56;9.07;;;4.57;;
17858;SDS011;35426;30.698;104.050;2023-09-19T11:57:32;14.13;;;6.13;;
17858;SDS011;35426;30.698;104.050;2023-09-19T12:00:10;18.73;;;6.65;;
17858;SDS011;35426;30.698;104.050;2023-09-19T12:02:52;15.50;;;5.60;;
17858;SDS011;35426;30.698;104.050;2023-09-19T12:05:31;15.77;;;6.20;;
17858;SDS011;35426;30.698;104.050;2023-09-19T12:08:06;18.20;;;6.63;;
17858;SDS011;35426;30.698;104.050;2023-09-19T12:10:45;14.30;;;8.10;;
17858;SDS011;35426;30.698;104.050;2023-09-19T12:13:20;14.37;;;7.70;;
17858;SDS011;35426;30.698;104.050;2023-09-19T12:15:55;16.90;;;7.63;;
17858;SDS011;35426;30.698;104.050;2023-09-19T12:18:32;17.88;;;7.68;;
17858;SDS011;35426;30.698;104.050;2023-09-19T12:21:06;17.33;;;8.20;;
17858;SDS011;35426;30.698;104.050;2023-09-19T12:26:49;20.83;;;7.53;;
17858;SDS011;35426;30.698;104.050;2023-09-19T12:29:27;22.52;;;7.85;;
17858;SDS011;35426;30.698;104.050;2023-09-19T12:32:04;18.80;;;7.70;;
17858;SDS011;35426;30.698;104.050;2023-09-19T12:34:49;16.75;;;6.90;;
17858;SDS011;35426;30.698;104.050;2023-09-19T12:37:24;17.42;;;7.63;;
17858;SDS011;35426;30.698;104.050;2023-09-19T12:40:04;17.42;;;6.85;;
17858;SDS011;35426;30.698;104.050;2023-09-19T12:42:47;24.90;;;7.30;;
17858;SDS011;35426;30.698;104.050;2023-09-19T12:45:28;21.47;;;7.73;;
17858;SDS011;35426;30.698;104.050;2023-09-19T12:48:21;16.10;;;7.45;;
17858;SDS011;35426;30.698;104.050;2023-09-19T12:51:09;19.05;;;8.00;;
17858;SDS011;35426;30.698;104.050;2023-09-19T12:53:46;20.73;;;8.83;;
17858;SDS011;35426;30.698;104.050;2023-09-19T12:56:39;21.50;;;8.60;;
17858;SDS011;35426;30.698;104.050;2023-09-19T12:59:17;21.37;;;8.50;;
17858;SDS011;35426;30.698;104.050;2023-09-19T13:02:05;22.67;;;8.80;;
17858;SDS011;35426;30.698;104.050;2023-09-19T13:04:54;24.63;;;8.80;;
17858;SDS011;35426;30.698;104.050;2023-09-19T13:07:43;26.07;;;9.43;;
17858;SDS011;35426;30.698;104.050;2023-09-19T13:10:20;29.17;;;9.40;;
17858;SDS011;35426;30.698;104.050;2023-09-19T13:12:58;22.20;;;8.30;;
17858;SDS011;35426;30.698;104.050;2023-09-19T13:16:01;18.17;;;7.50;;
17858;SDS011;35426;30.698;104.050;2023-09-19T13:18:45;20.50;;;7.83;;
17858;SDS011;35426;30.698;104.050;2023-09-19T13:21:28;19.17;;;7.72;;
17858;SDS011;35426;30.698;104.050;2023-09-19T13:24:20;20.67;;;8.10;;
17858;SDS011;35426;30.698;104.050;2023-09-19T13:27:00;19.80;;;7.60;;
17858;SDS011;35426;30.698;104.050;2023-09-19T13:29:36;23.25;;;7.82;;
17858;SDS011;35426;30.698;104.050;2023-09-19T13:32:10;18.73;;;7.10;;
17858;SDS011;35426;30.698;104.050;2023-09-19T13:34:45;19.50;;;8.00;;
17858;SDS011;35426;30.698;104.050;2023-09-19T13:37:22;22.00;;;8.43;;
17858;SDS011;35426;30.698;104.050;2023-09-19T13:39:58;20.42;;;8.30;;
17858;SDS011;35426;30.698;104.050;2023-09-19T13:42:34;24.77;;;8.60;;
17858;SDS011;35426;30.698;104.050;2023-09-19T13:45:10;23.07;;;9.30;;
17858;SDS011;35426;30.698;104.050;2023-09-19T13:47:47;27.23;;;9.38;;
17858;SDS011;35426;30.698;104.050;2023-09-19T13:50:21;27.27;;;9.37;;
17858;SDS011;35426;30.698;104.050;2023-09-19T13:53:02;24.17;;;9.23;;
17858;SDS011;35426;30.698;104.050;2023-09-19T13:55:39;25.50;;;9.90;;
17858;SDS011;35426;30.698;104.050;2023-09-19T13:58:18;25.17;;;10.23;;
17858;SDS011;35426;30.698;104.050;2023-09-19T14:00:56;28.03;;;10.03;;
17858;SDS011;35426;30.698;104.050;2023-09-19T14:03:31;24.57;;;9.57;;
17858;SDS011;35426;30.698;104.050;2023-09-19T14:06:06;26.83;;;9.90;;
17858;SDS011;35426;30.698;104.050;2023-09-19T14:08:41;19.53;;;9.80;;
17858;SDS011;35426;30.698;104.050;2023-09-19T14:11:19;28.47;;;9.97;;
17858;SDS011;35426;30.698;104.050;2023-09-19T14:13:54;35.20;;;18.13;;
17858;SDS011;35426;30.698;104.050;2023-09-19T14:16:32;27.07;;;8.60;;
17858;SDS011;35426;30.698;104.050;2023-09-19T14:19:06;23.40;;;11.30;;
17858;SDS011;35426;30.698;104.050;2023-09-19T14:21:41;23.10;;;11.43;;
17858;SDS011;35426;30.698;104.050;2023-09-19T14:24:17;27.97;;;10.90;;
17858;SDS011;35426;30.698;104.050;2023-09-19T14:26:53;40.00;;;18.93;;
17858;SDS011;35426;30.698;104.050;2023-09-19T14:29:29;28.13;;;12.10;;
17858;SDS011;35426;30.698;104.050;2023-09-19T14:32:04;26.37;;;9.83;;
17858;SDS011;35426;30.698;104.050;2023-09-19T14:34:38;21.90;;;10.33;;
17858;SDS011;35426;30.698;104.050;2023-09-19T14:37:16;25.53;;;10.70;;
17858;SDS011;35426;30.698;104.050;2023-09-19T14:39:50;27.80;;;11.37;;
17858;SDS011;35426;30.698;104.050;2023-09-19T14:42:30;20.33;;;10.20;;
17858;SDS011;35426;30.698;104.050;2023-09-19T14:45:05;25.47;;;10.23;;
17858;SDS011;35426;30.698;104.050;2023-09-19T14:47:40;22.20;;;9.90;;
17858;SDS011;35426;30.698;104.050;2023-09-19T14:50:16;20.27;;;9.13;;
17858;SDS011;35426;30.698;104.050;2023-09-19T14:52:50;18.77;;;9.00;;
17858;SDS011;35426;30.698;104.050;2023-09-19T14:55:25;22.80;;;9.40;;
17858;SDS011;35426;30.698;104.050;2023-09-19T14:58:01;21.40;;;9.43;;
17858;SDS011;35426;30.698;104.050;2023-09-19T15:00:35;20.27;;;9.60;;
17858;SDS011;35426;30.698;104.050;2023-09-19T15:03:12;26.37;;;9.47;;
17858;SDS011;35426;30.698;104.050;2023-09-19T15:05:47;17.90;;;9.60;;
17858;SDS011;35426;30.698;104.050;2023-09-19T15:08:21;21.50;;;9.50;;
17858;SDS011;35426;30.698;104.050;2023-09-19T15:10:56;19.20;;;9.47;;
17858;SDS011;35426;30.698;104.050;2023-09-19T15:13:35;16.77;;;9.17;;
17858;SDS011;35426;30.698;104.050;2023-09-19T15:16:10;18.67;;;9.40;;
17858;SDS011;35426;30.698;104.050;2023-09-19T15:18:44;22.27;;;9.10;;
17858;SDS011;35426;30.698;104.050;2023-09-19T15:21:19;26.43;;;10.07;;
17858;SDS011;35426;30.698;104.050;2023-09-19T15:23:54;35.67;;;9.60;;